sensor_id;sensor_type;location;lat;lon;timestamp;pressure;altitude;pressure_sealevel;temperature;humidity
83185;BME280;73080;48.768;11.528;2024-03-22T00:01:12;97782.59;;;7.23;81.99
83185;BME280;73080;48.768;11.528;2024-03-22T00:03:38;97776.56;;;7.09;82.47
83185;BME280;73080;48.768;11.528;2024-03-22T00:06:06;97787.59;;;7.04;83.17
83185;BME280;73080;48.768;11.528;2024-03-22T00:08:32;97784.59;;;7.14;83.08
83185;BME280;73080;48.768;11.528;2024-03-22T00:10:57;97785.41;;;7.14;82.78
83185;BME280;73080;48.768;11.528;2024-03-22T00:13:22;97784.97;;;7.11;83.01
83185;BME280;73080;48.768;11.528;2024-03-22T00:15:48;97781.19;;;7.13;82.90
83185;BME280;73080;48.768;11.528;2024-03-22T00:18:13;97779.59;;;7.19;82.59
83185;BME280;73080;48.768;11.528;2024-03-22T00:20:39;97772.13;;;7.16;82.17
83185;BME280;73080;48.768;11.528;2024-03-22T00:23:04;97774.34;;;6.99;82.76
83185;BME280;73080;48.768;11.528;2024-03-22T00:25:30;97772.72;;;6.92;83.05
83185;BME280;73080;48.768;11.528;2024-03-22T00:27:56;97760.06;;;6.95;82.77
83185;BME280;73080;48.768;11.528;2024-03-22T00:30:21;97758.88;;;6.98;82.85
83185;BME280;73080;48.768;11.528;2024-03-22T00:32:47;97764.28;;;6.89;82.98
83185;BME280;73080;48.768;11.528;2024-03-22T00:35:12;97761.50;;;6.91;83.00
83185;BME280;73080;48.768;11.528;2024-03-22T00:37:38;97754.84;;;6.88;82.61
83185;BME280;73080;48.768;11.528;2024-03-22T00:40:05;97749.03;;;6.86;83.13
83185;BME280;73080;48.768;11.528;2024-03-22T00:42:30;97745.81;;;6.78;83.68
83185;BME280;73080;48.768;11.528;2024-03-22T00:44:56;97742.78;;;6.74;83.99
83185;BME280;73080;48.768;11.528;2024-03-22T00:47:21;97729.53;;;6.89;83.03
83185;BME280;73080;48.768;11.528;2024-03-22T00:49:47;97731.16;;;6.77;83.52
83185;BME280;73080;48.768;11.528;2024-03-22T00:52:12;97740.16;;;6.74;83.73
83185;BME280;73080;48.768;11.528;2024-03-22T00:54:38;97730.31;;;6.76;83.13
83185;BME280;73080;48.768;11.528;2024-03-22T00:57:03;97726.53;;;6.72;84.08
83185;BME280;73080;48.768;11.528;2024-03-22T00:59:29;97721.09;;;6.80;83.56
83185;BME280;73080;48.768;11.528;2024-03-22T01:01:54;97721.53;;;6.84;83.16
83185;BME280;73080;48.768;11.528;2024-03-22T01:04:20;97714.28;;;6.79;83.18
83185;BME280;73080;48.768;11.528;2024-03-22T01:06:45;97712.47;;;6.80;83.60
83185;BME280;73080;48.768;11.528;2024-03-22T01:09:11;97716.09;;;6.79;83.50
83185;BME280;73080;48.768;11.528;2024-03-22T01:11:36;97714.69;;;6.83;83.35
83185;BME280;73080;48.768;11.528;2024-03-22T01:14:05;97709.66;;;6.95;83.34
83185;BME280;73080;48.768;11.528;2024-03-22T01:16:30;97708.88;;;7.01;82.79
83185;BME280;73080;48.768;11.528;2024-03-22T01:18:56;97710.25;;;7.03;82.58
83185;BME280;73080;48.768;11.528;2024-03-22T01:21:21;97707.28;;;7.00;82.76
83185;BME280;73080;48.768;11.528;2024-03-22T01:23:47;97703.66;;;6.94;83.26
83185;BME280;73080;48.768;11.528;2024-03-22T01:26:19;97701.84;;;6.95;82.78
83185;BME280;73080;48.768;11.528;2024-03-22T01:28:44;97698.63;;;6.93;82.40
83185;BME280;73080;48.768;11.528;2024-03-22T01:31:09;97703.22;;;6.91;82.67
83185;BME280;73080;48.768;11.528;2024-03-22T01:33:38;97697.81;;;6.79;82.85
83185;BME280;73080;48.768;11.528;2024-03-22T01:36:04;97693.00;;;6.82;82.82
83185;BME280;73080;48.768;11.528;2024-03-22T01:38:29;97698.22;;;6.76;82.68
83185;BME280;73080;48.768;11.528;2024-03-22T01:40:55;97686.78;;;6.77;83.16
83185;BME280;73080;48.768;11.528;2024-03-22T01:43:20;97683.56;;;6.81;82.70
83185;BME280;73080;48.768;11.528;2024-03-22T01:45:46;97675.53;;;6.83;82.50
83185;BME280;73080;48.768;11.528;2024-03-22T01:48:11;97674.53;;;6.77;82.98
83185;BME280;73080;48.768;11.528;2024-03-22T01:50:37;97676.16;;;6.72;83.00
83185;BME280;73080;48.768;11.528;2024-03-22T01:53:03;97677.53;;;6.68;83.23
83185;BME280;73080;48.768;11.528;2024-03-22T01:55:29;97668.53;;;6.70;83.08
83185;BME280;73080;48.768;11.528;2024-03-22T01:57:55;97670.31;;;6.63;83.52
83185;BME280;73080;48.768;11.528;2024-03-22T02:00:21;97672.50;;;6.59;83.11
83185;BME280;73080;48.768;11.528;2024-03-22T02:02:46;97662.09;;;6.66;83.01
83185;BME280;73080;48.768;11.528;2024-03-22T02:05:16;97661.88;;;6.61;83.50
83185;BME280;73080;48.768;11.528;2024-03-22T02:07:42;97667.72;;;6.63;83.24
83185;BME280;73080;48.768;11.528;2024-03-22T02:10:09;97661.69;;;6.56;83.98
83185;BME280;73080;48.768;11.528;2024-03-22T02:12:35;97660.03;;;6.48;83.82
83185;BME280;73080;48.768;11.528;2024-03-22T02:15:01;97653.63;;;6.38;84.45
83185;BME280;73080;48.768;11.528;2024-03-22T02:17:27;97659.63;;;6.25;84.74
83185;BME280;73080;48.768;11.528;2024-03-22T02:19:52;97657.59;;;6.27;85.37
83185;BME280;73080;48.768;11.528;2024-03-22T02:22:18;97657.94;;;5.97;86.54
83185;BME280;73080;48.768;11.528;2024-03-22T02:24:43;97653.94;;;5.95;87.03
83185;BME280;73080;48.768;11.528;2024-03-22T02:27:09;97657.09;;;5.90;87.54
83185;BME280;73080;48.768;11.528;2024-03-22T02:29:37;97653.66;;;5.83;87.44
83185;BME280;73080;48.768;11.528;2024-03-22T02:32:03;97652.44;;;5.72;87.61
83185;BME280;73080;48.768;11.528;2024-03-22T02:34:29;97640.97;;;5.67;87.91
83185;BME280;73080;48.768;11.528;2024-03-22T02:36:54;97643.03;;;5.85;87.74
83185;BME280;73080;48.768;11.528;2024-03-22T02:39:20;97643.22;;;5.83;87.56
83185;BME280;73080;48.768;11.528;2024-03-22T02:41:45;97640.59;;;5.76;87.12
83185;BME280;73080;48.768;11.528;2024-03-22T02:44:10;97644.63;;;5.72;87.73
83185;BME280;73080;48.768;11.528;2024-03-22T02:46:36;97641.44;;;5.84;86.87
83185;BME280;73080;48.768;11.528;2024-03-22T02:49:01;97639.91;;;5.96;86.75
83185;BME280;73080;48.768;11.528;2024-03-22T02:51:27;97638.09;;;5.96;86.25
83185;BME280;73080;48.768;11.528;2024-03-22T02:53:52;97639.84;;;5.89;86.49
83185;BME280;73080;48.768;11.528;2024-03-22T02:56:18;97639.59;;;5.77;87.14
83185;BME280;73080;48.768;11.528;2024-03-22T02:58:43;97637.25;;;5.89;86.19
83185;BME280;73080;48.768;11.528;2024-03-22T03:01:09;97637.25;;;5.89;86.55
83185;BME280;73080;48.768;11.528;2024-03-22T03:03:34;97632.00;;;5.83;86.28
83185;BME280;73080;48.768;11.528;2024-03-22T03:06:00;97629.78;;;5.73;86.41
83185;BME280;73080;48.768;11.528;2024-03-22T03:08:25;97629.50;;;5.55;87.12
83185;BME280;73080;48.768;11.528;2024-03-22T03:10:50;97624.69;;;5.51;87.62
83185;BME280;73080;48.768;11.528;2024-03-22T03:13:19;97626.25;;;5.46;87.89
83185;BME280;73080;48.768;11.528;2024-03-22T03:15:45;97625.00;;;5.35;88.81
83185;BME280;73080;48.768;11.528;2024-03-22T03:18:10;97613.97;;;5.33;88.21
83185;BME280;73080;48.768;11.528;2024-03-22T03:20:39;97616.91;;;5.58;88.27
83185;BME280;73080;48.768;11.528;2024-03-22T03:23:04;97616.31;;;5.63;87.45
83185;BME280;73080;48.768;11.528;2024-03-22T03:25:30;97612.53;;;5.65;87.64
83185;BME280;73080;48.768;11.528;2024-03-22T03:27:55;97611.09;;;5.63;86.66
83185;BME280;73080;48.768;11.528;2024-03-22T03:30:21;97611.72;;;5.65;86.97
83185;BME280;73080;48.768;11.528;2024-03-22T03:32:46;97613.09;;;5.61;86.10
83185;BME280;73080;48.768;11.528;2024-03-22T03:35:12;97610.91;;;5.64;86.49
83185;BME280;73080;48.768;11.528;2024-03-22T03:37:37;97612.69;;;5.57;85.74
83185;BME280;73080;48.768;11.528;2024-03-22T03:40:03;97608.88;;;5.60;85.72
83185;BME280;73080;48.768;11.528;2024-03-22T03:42:29;97609.25;;;5.57;85.62
83185;BME280;73080;48.768;11.528;2024-03-22T03:44:54;97602.09;;;5.17;85.87
83185;BME280;73080;48.768;11.528;2024-03-22T03:47:19;97608.38;;;5.30;87.11
83185;BME280;73080;48.768;11.528;2024-03-22T03:49:46;97613.34;;;5.24;86.37
83185;BME280;73080;48.768;11.528;2024-03-22T03:52:11;97616.50;;;5.20;84.76
83185;BME280;73080;48.768;11.528;2024-03-22T03:54:37;97602.94;;;5.24;85.20
83185;BME280;73080;48.768;11.528;2024-03-22T03:57:02;97604.84;;;5.09;86.41
83185;BME280;73080;48.768;11.528;2024-03-22T03:59:28;97596.44;;;5.14;87.13
83185;BME280;73080;48.768;11.528;2024-03-22T04:01:54;97601.63;;;5.07;85.81
83185;BME280;73080;48.768;11.528;2024-03-22T04:04:19;97595.81;;;5.05;87.02
83185;BME280;73080;48.768;11.528;2024-03-22T04:06:45;97598.44;;;5.12;87.01
83185;BME280;73080;48.768;11.528;2024-03-22T04:09:11;97594.28;;;5.17;86.59
83185;BME280;73080;48.768;11.528;2024-03-22T04:11:36;97582.06;;;5.18;86.56
83185;BME280;73080;48.768;11.528;2024-03-22T04:14:02;97574.41;;;5.10;86.82
83185;BME280;73080;48.768;11.528;2024-03-22T04:16:27;97567.56;;;5.02;87.39
83185;BME280;73080;48.768;11.528;2024-03-22T04:18:56;97571.84;;;5.16;87.58
83185;BME280;73080;48.768;11.528;2024-03-22T04:21:21;97561.44;;;5.16;87.20
83185;BME280;73080;48.768;11.528;2024-03-22T04:23:47;97556.88;;;5.25;86.80
83185;BME280;73080;48.768;11.528;2024-03-22T04:26:12;97562.03;;;5.18;87.46
83185;BME280;73080;48.768;11.528;2024-03-22T04:28:38;97561.69;;;5.28;87.00
83185;BME280;73080;48.768;11.528;2024-03-22T04:31:08;97574.13;;;5.33;86.84
83185;BME280;73080;48.768;11.528;2024-03-22T04:33:34;97576.72;;;5.33;86.75
83185;BME280;73080;48.768;11.528;2024-03-22T04:36:01;97582.50;;;5.28;85.89
83185;BME280;73080;48.768;11.528;2024-03-22T04:38:29;97571.84;;;5.16;86.39
83185;BME280;73080;48.768;11.528;2024-03-22T04:40:55;97578.09;;;5.22;85.72
83185;BME280;73080;48.768;11.528;2024-03-22T04:43:24;97575.28;;;5.23;85.34
83185;BME280;73080;48.768;11.528;2024-03-22T04:45:52;97570.31;;;5.29;85.71
83185;BME280;73080;48.768;11.528;2024-03-22T04:48:20;97575.94;;;5.32;85.65
83185;BME280;73080;48.768;11.528;2024-03-22T04:50:45;97585.94;;;5.35;85.96
83185;BME280;73080;48.768;11.528;2024-03-22T04:53:11;97584.75;;;5.31;85.91
83185;BME280;73080;48.768;11.528;2024-03-22T04:55:39;97591.50;;;5.26;85.48
83185;BME280;73080;48.768;11.528;2024-03-22T04:58:04;97589.88;;;5.18;85.53
83185;BME280;73080;48.768;11.528;2024-03-22T05:00:30;97583.31;;;5.22;85.46
83185;BME280;73080;48.768;11.528;2024-03-22T05:02:55;97574.03;;;5.13;84.79
83185;BME280;73080;48.768;11.528;2024-03-22T05:05:21;97576.19;;;5.03;85.88
83185;BME280;73080;48.768;11.528;2024-03-22T05:07:47;97582.16;;;4.96;87.02
83185;BME280;73080;48.768;11.528;2024-03-22T05:10:12;97585.41;;;5.05;86.73
83185;BME280;73080;48.768;11.528;2024-03-22T05:12:38;97584.19;;;5.01;86.75
83185;BME280;73080;48.768;11.528;2024-03-22T05:15:04;97575.38;;;5.02;86.07
83185;BME280;73080;48.768;11.528;2024-03-22T05:17:30;97584.97;;;4.95;86.90
83185;BME280;73080;48.768;11.528;2024-03-22T05:19:55;97584.97;;;4.95;86.66
83185;BME280;73080;48.768;11.528;2024-03-22T05:22:21;97584.34;;;5.00;86.06
83185;BME280;73080;48.768;11.528;2024-03-22T05:24:46;97586.19;;;5.06;86.33
83185;BME280;73080;48.768;11.528;2024-03-22T05:27:11;97582.59;;;5.07;86.44
83185;BME280;73080;48.768;11.528;2024-03-22T05:29:37;97580.63;;;5.09;85.37
83185;BME280;73080;48.768;11.528;2024-03-22T05:32:03;97581.22;;;5.11;85.51
83185;BME280;73080;48.768;11.528;2024-03-22T05:34:28;97577.38;;;5.07;85.95
83185;BME280;73080;48.768;11.528;2024-03-22T05:36:53;97575.19;;;5.04;85.83
83185;BME280;73080;48.768;11.528;2024-03-22T05:39:19;97566.56;;;5.03;85.03
83185;BME280;73080;48.768;11.528;2024-03-22T05:41:44;97568.34;;;4.96;85.94
83185;BME280;73080;48.768;11.528;2024-03-22T05:44:10;97559.00;;;5.08;86.49
83185;BME280;73080;48.768;11.528;2024-03-22T05:46:35;97558.81;;;5.10;86.11
83185;BME280;73080;48.768;11.528;2024-03-22T05:49:01;97561.84;;;5.20;85.97
83185;BME280;73080;48.768;11.528;2024-03-22T05:51:26;97559.66;;;5.23;85.54
83185;BME280;73080;48.768;11.528;2024-03-22T05:53:52;97553.44;;;5.18;85.57
83185;BME280;73080;48.768;11.528;2024-03-22T05:56:17;97549.00;;;5.12;85.42
83185;BME280;73080;48.768;11.528;2024-03-22T05:58:43;97550.41;;;5.08;85.56
83185;BME280;73080;48.768;11.528;2024-03-22T06:01:08;97547.88;;;4.93;86.22
83185;BME280;73080;48.768;11.528;2024-03-22T06:03:34;97547.63;;;5.16;87.60
83185;BME280;73080;48.768;11.528;2024-03-22T06:06:02;97548.41;;;5.84;84.82
83185;BME280;73080;48.768;11.528;2024-03-22T06:08:28;97547.28;;;6.66;82.94
83185;BME280;73080;48.768;11.528;2024-03-22T06:10:55;97546.19;;;7.52;78.65
83185;BME280;73080;48.768;11.528;2024-03-22T06:13:20;97550.78;;;7.63;76.54
83185;BME280;73080;48.768;11.528;2024-03-22T06:15:48;97556.22;;;8.24;74.39
83185;BME280;73080;48.768;11.528;2024-03-22T06:18:14;97563.38;;;9.22;70.91
83185;BME280;73080;48.768;11.528;2024-03-22T06:20:40;97559.50;;;9.61;69.25
83185;BME280;73080;48.768;11.528;2024-03-22T06:23:05;97565.94;;;10.19;67.20
83185;BME280;73080;48.768;11.528;2024-03-22T06:25:30;97563.53;;;10.59;64.83
83185;BME280;73080;48.768;11.528;2024-03-22T06:27:56;97565.69;;;10.62;64.62
83185;BME280;73080;48.768;11.528;2024-03-22T06:30:21;97557.22;;;9.95;66.95
83185;BME280;73080;48.768;11.528;2024-03-22T06:32:47;97553.47;;;9.43;69.28
83185;BME280;73080;48.768;11.528;2024-03-22T06:35:13;97548.19;;;9.13;69.39
83185;BME280;73080;48.768;11.528;2024-03-22T06:37:39;97543.44;;;8.41;72.42
83185;BME280;73080;48.768;11.528;2024-03-22T06:40:06;97542.03;;;7.82;75.42
83185;BME280;73080;48.768;11.528;2024-03-22T06:42:32;97540.59;;;7.48;76.90
83185;BME280;73080;48.768;11.528;2024-03-22T06:44:58;97529.31;;;7.03;78.51
83185;BME280;73080;48.768;11.528;2024-03-22T06:47:23;97530.38;;;6.75;79.95
83185;BME280;73080;48.768;11.528;2024-03-22T06:49:49;97527.84;;;6.49;81.49
83185;BME280;73080;48.768;11.528;2024-03-22T06:52:14;97531.44;;;6.48;82.49
83185;BME280;73080;48.768;11.528;2024-03-22T06:54:40;97541.91;;;6.28;82.87
83185;BME280;73080;48.768;11.528;2024-03-22T06:57:08;97531.06;;;6.44;82.61
83185;BME280;73080;48.768;11.528;2024-03-22T06:59:34;97534.47;;;6.25;84.12
83185;BME280;73080;48.768;11.528;2024-03-22T07:02:02;97523.22;;;6.24;84.11
83185;BME280;73080;48.768;11.528;2024-03-22T07:04:28;97531.06;;;6.18;84.93
83185;BME280;73080;48.768;11.528;2024-03-22T07:06:53;97530.84;;;6.13;84.86
83185;BME280;73080;48.768;11.528;2024-03-22T07:09:18;97528.44;;;6.24;86.13
83185;BME280;73080;48.768;11.528;2024-03-22T07:11:44;97522.63;;;6.09;86.46
83185;BME280;73080;48.768;11.528;2024-03-22T07:14:10;97520.63;;;6.11;86.79
83185;BME280;73080;48.768;11.528;2024-03-22T07:16:35;97522.22;;;6.12;86.99
83185;BME280;73080;48.768;11.528;2024-03-22T07:19:03;97526.03;;;6.23;86.70
83185;BME280;73080;48.768;11.528;2024-03-22T07:21:29;97512.78;;;6.44;86.28
83185;BME280;73080;48.768;11.528;2024-03-22T07:23:55;97515.41;;;6.51;86.46
83185;BME280;73080;48.768;11.528;2024-03-22T07:26:21;97515.78;;;6.61;86.78
83185;BME280;73080;48.768;11.528;2024-03-22T07:28:46;97512.56;;;6.59;86.23
83185;BME280;73080;48.768;11.528;2024-03-22T07:31:12;97504.50;;;6.74;86.72
83185;BME280;73080;48.768;11.528;2024-03-22T07:33:40;97508.69;;;6.88;85.84
83185;BME280;73080;48.768;11.528;2024-03-22T07:36:06;97507.41;;;7.04;85.74
83185;BME280;73080;48.768;11.528;2024-03-22T07:38:32;97509.41;;;7.15;84.93
83185;BME280;73080;48.768;11.528;2024-03-22T07:41:00;97504.78;;;7.10;84.42
83185;BME280;73080;48.768;11.528;2024-03-22T07:43:26;97512.34;;;7.70;82.65
83185;BME280;73080;48.768;11.528;2024-03-22T07:45:51;97507.22;;;7.82;81.69
83185;BME280;73080;48.768;11.528;2024-03-22T07:48:17;97510.56;;;8.20;80.52
83185;BME280;73080;48.768;11.528;2024-03-22T07:50:43;97511.00;;;8.17;80.58
83185;BME280;73080;48.768;11.528;2024-03-22T07:53:32;97520.56;;;8.55;80.61
83185;BME280;73080;48.768;11.528;2024-03-22T07:55:56;97518.56;;;8.94;79.04
83185;BME280;73080;48.768;11.528;2024-03-22T07:58:22;97520.81;;;9.08;77.59
83185;BME280;73080;48.768;11.528;2024-03-22T08:00:47;97524.09;;;9.22;77.69
83185;BME280;73080;48.768;11.528;2024-03-22T08:03:16;97524.31;;;9.21;77.06
83185;BME280;73080;48.768;11.528;2024-03-22T08:05:41;97519.38;;;9.13;77.57
83185;BME280;73080;48.768;11.528;2024-03-22T08:08:07;97521.09;;;9.00;77.13
83185;BME280;73080;48.768;11.528;2024-03-22T08:10:33;97514.84;;;9.20;75.50
83185;BME280;73080;48.768;11.528;2024-03-22T08:12:58;97515.22;;;9.23;76.93
83185;BME280;73080;48.768;11.528;2024-03-22T08:15:24;97508.66;;;9.14;76.86
83185;BME280;73080;48.768;11.528;2024-03-22T08:17:52;97515.44;;;8.85;77.50
83185;BME280;73080;48.768;11.528;2024-03-22T08:20:17;97515.38;;;9.10;77.65
83185;BME280;73080;48.768;11.528;2024-03-22T08:22:48;97516.97;;;9.11;76.52
83185;BME280;73080;48.768;11.528;2024-03-22T08:25:14;97515.81;;;9.07;77.29
83185;BME280;73080;48.768;11.528;2024-03-22T08:27:39;97512.41;;;8.88;77.60
83185;BME280;73080;48.768;11.528;2024-03-22T08:30:06;97508.00;;;9.00;76.56
83185;BME280;73080;48.768;11.528;2024-03-22T08:32:31;97509.53;;;9.26;76.06
83185;BME280;73080;48.768;11.528;2024-03-22T08:34:57;97517.41;;;9.08;75.97
83185;BME280;73080;48.768;11.528;2024-03-22T08:37:25;97519.22;;;9.07;75.98
83185;BME280;73080;48.768;11.528;2024-03-22T08:39:51;97515.66;;;9.20;76.30
83185;BME280;73080;48.768;11.528;2024-03-22T08:42:16;97510.78;;;9.24;76.78
83185;BME280;73080;48.768;11.528;2024-03-22T08:44:42;97513.59;;;9.22;76.19
83185;BME280;73080;48.768;11.528;2024-03-22T08:47:07;97509.16;;;9.41;75.56
83185;BME280;73080;48.768;11.528;2024-03-22T08:49:33;97504.25;;;9.75;75.19
83185;BME280;73080;48.768;11.528;2024-03-22T08:51:58;97499.72;;;9.94;74.52
83185;BME280;73080;48.768;11.528;2024-03-22T08:54:24;97506.50;;;10.13;73.02
83185;BME280;73080;48.768;11.528;2024-03-22T08:56:49;97501.47;;;10.11;73.73
83185;BME280;73080;48.768;11.528;2024-03-22T08:59:15;97499.09;;;10.22;72.89
83185;BME280;73080;48.768;11.528;2024-03-22T09:01:40;97495.22;;;10.12;73.58
83185;BME280;73080;48.768;11.528;2024-03-22T09:04:06;97483.41;;;9.91;73.23
83185;BME280;73080;48.768;11.528;2024-03-22T09:06:31;97493.16;;;10.03;73.51
83185;BME280;73080;48.768;11.528;2024-03-22T09:08:57;97486.50;;;9.88;74.05
83185;BME280;73080;48.768;11.528;2024-03-22T09:11:22;97480.47;;;10.00;74.94
83185;BME280;73080;48.768;11.528;2024-03-22T09:13:53;97473.72;;;9.92;74.27
83185;BME280;73080;48.768;11.528;2024-03-22T09:16:23;97472.06;;;10.21;73.58
83185;BME280;73080;48.768;11.528;2024-03-22T09:18:55;97480.84;;;10.15;73.89
83185;BME280;73080;48.768;11.528;2024-03-22T09:21:20;97472.09;;;10.56;74.93
83185;BME280;73080;48.768;11.528;2024-03-22T09:23:46;97472.31;;;10.66;72.24
83185;BME280;73080;48.768;11.528;2024-03-22T09:26:11;97475.91;;;10.07;73.08
83185;BME280;73080;48.768;11.528;2024-03-22T09:28:36;97477.81;;;10.65;72.22
83185;BME280;73080;48.768;11.528;2024-03-22T09:31:06;97475.63;;;10.73;72.91
83185;BME280;73080;48.768;11.528;2024-03-22T09:33:35;97466.22;;;10.89;72.63
83185;BME280;73080;48.768;11.528;2024-03-22T09:36:00;97473.16;;;11.07;69.60
83185;BME280;73080;48.768;11.528;2024-03-22T09:38:29;97465.34;;;11.12;69.78
83185;BME280;73080;48.768;11.528;2024-03-22T09:40:55;97463.25;;;11.26;71.12
83185;BME280;73080;48.768;11.528;2024-03-22T09:43:21;97462.66;;;11.36;70.86
83185;BME280;73080;48.768;11.528;2024-03-22T09:45:48;97458.75;;;11.10;69.59
83185;BME280;73080;48.768;11.528;2024-03-22T09:48:14;97461.38;;;11.38;69.20
83185;BME280;73080;48.768;11.528;2024-03-22T09:50:41;97456.59;;;11.35;69.54
83185;BME280;73080;48.768;11.528;2024-03-22T09:53:06;97456.13;;;10.58;70.04
83185;BME280;73080;48.768;11.528;2024-03-22T09:55:33;97454.19;;;11.34;69.65
83185;BME280;73080;48.768;11.528;2024-03-22T09:58:00;97453.34;;;11.45;69.45
83185;BME280;73080;48.768;11.528;2024-03-22T10:00:25;97449.69;;;11.46;68.51
83185;BME280;73080;48.768;11.528;2024-03-22T10:02:51;97451.31;;;11.64;67.80
83185;BME280;73080;48.768;11.528;2024-03-22T10:05:17;97453.66;;;11.77;nan
83185;BME280;73080;48.768;11.528;2024-03-22T10:07:46;97447.88;;;11.92;66.97
83185;BME280;73080;48.768;11.528;2024-03-22T10:10:14;97448.47;;;12.32;66.42
83185;BME280;73080;48.768;11.528;2024-03-22T10:12:40;97448.09;;;12.41;66.56
83185;BME280;73080;48.768;11.528;2024-03-22T10:15:06;97445.50;;;12.84;65.69
83185;BME280;73080;48.768;11.528;2024-03-22T10:17:31;97443.84;;;12.40;65.49
83185;BME280;73080;48.768;11.528;2024-03-22T10:19:57;97441.78;;;12.42;65.84
83185;BME280;73080;48.768;11.528;2024-03-22T10:22:22;97434.72;;;12.47;66.78
83185;BME280;73080;48.768;11.528;2024-03-22T10:24:48;97444.56;;;12.74;64.76
83185;BME280;73080;48.768;11.528;2024-03-22T10:27:14;97439.28;;;12.74;64.60
83185;BME280;73080;48.768;11.528;2024-03-22T10:29:42;97434.63;;;13.03;63.30
83185;BME280;73080;48.768;11.528;2024-03-22T10:32:08;97428.28;;;12.99;63.58
83185;BME280;73080;48.768;11.528;2024-03-22T10:34:34;97430.53;;;12.90;62.87
83185;BME280;73080;48.768;11.528;2024-03-22T10:37:00;97422.81;;;13.05;62.72
83185;BME280;73080;48.768;11.528;2024-03-22T10:39:26;97427.38;;;13.37;61.98
83185;BME280;73080;48.768;11.528;2024-03-22T10:41:53;97419.31;;;13.49;61.98
83185;BME280;73080;48.768;11.528;2024-03-22T10:44:18;97419.56;;;12.98;62.94
83185;BME280;73080;48.768;11.528;2024-03-22T10:46:48;97428.03;;;13.22;62.31
83185;BME280;73080;48.768;11.528;2024-03-22T10:49:18;97413.72;;;12.52;63.68
83185;BME280;73080;48.768;11.528;2024-03-22T10:51:46;97408.00;;;12.55;65.36
83185;BME280;73080;48.768;11.528;2024-03-22T10:54:18;97404.84;;;13.02;62.96
83185;BME280;73080;48.768;11.528;2024-03-22T10:56:45;97399.03;;;13.00;61.25
83185;BME280;73080;48.768;11.528;2024-03-22T10:59:14;97389.66;;;13.63;61.96
83185;BME280;73080;48.768;11.528;2024-03-22T11:01:46;97386.63;;;13.01;62.33
83185;BME280;73080;48.768;11.528;2024-03-22T11:04:19;97381.50;;;13.11;62.18
83185;BME280;73080;48.768;11.528;2024-03-22T11:06:57;97374.06;;;13.08;62.30
83185;BME280;73080;48.768;11.528;2024-03-22T11:09:25;97365.66;;;13.33;62.18
83185;BME280;73080;48.768;11.528;2024-03-22T11:11:55;97357.75;;;13.38;62.08
83185;BME280;73080;48.768;11.528;2024-03-22T11:14:24;97354.81;;;13.61;60.61
83185;BME280;73080;48.768;11.528;2024-03-22T11:16:49;97353.91;;;13.83;60.72
83185;BME280;73080;48.768;11.528;2024-03-22T11:19:15;97346.69;;;14.10;60.48
83185;BME280;73080;48.768;11.528;2024-03-22T11:21:40;97349.78;;;13.97;60.44
83185;BME280;73080;48.768;11.528;2024-03-22T11:24:06;97337.94;;;14.47;59.00
83185;BME280;73080;48.768;11.528;2024-03-22T11:26:33;97333.88;;;14.34;59.26
83185;BME280;73080;48.768;11.528;2024-03-22T11:29:01;97329.69;;;14.38;58.52
83185;BME280;73080;48.768;11.528;2024-03-22T11:31:29;97328.66;;;14.02;58.94
83185;BME280;73080;48.768;11.528;2024-03-22T11:33:56;97327.47;;;14.20;59.83
83185;BME280;73080;48.768;11.528;2024-03-22T11:36:22;97313.22;;;14.26;59.53
83185;BME280;73080;48.768;11.528;2024-03-22T11:38:48;97312.31;;;14.52;58.00
83185;BME280;73080;48.768;11.528;2024-03-22T11:41:29;97313.25;;;15.34;57.02
83185;BME280;73080;48.768;11.528;2024-03-22T11:43:55;97303.44;;;16.01;56.47
83185;BME280;73080;48.768;11.528;2024-03-22T11:46:22;97295.19;;;16.13;53.81
83185;BME280;73080;48.768;11.528;2024-03-22T11:48:54;97300.03;;;16.60;52.67
83185;BME280;73080;48.768;11.528;2024-03-22T11:51:20;97286.56;;;15.31;54.95
83185;BME280;73080;48.768;11.528;2024-03-22T11:53:50;97286.53;;;15.41;54.67
83185;BME280;73080;48.768;11.528;2024-03-22T11:56:18;97279.09;;;15.84;53.29
83185;BME280;73080;48.768;11.528;2024-03-22T11:58:46;97280.06;;;16.13;50.96
83185;BME280;73080;48.768;11.528;2024-03-22T12:01:12;97272.81;;;15.64;51.43
83185;BME280;73080;48.768;11.528;2024-03-22T12:03:37;97259.53;;;15.75;51.88
83185;BME280;73080;48.768;11.528;2024-03-22T12:06:03;97256.44;;;16.87;51.04
83185;BME280;73080;48.768;11.528;2024-03-22T12:08:29;97255.44;;;16.78;50.79
83185;BME280;73080;48.768;11.528;2024-03-22T12:10:58;97258.50;;;16.95;49.40
83185;BME280;73080;48.768;11.528;2024-03-22T12:13:26;97244.44;;;16.94;51.01
83185;BME280;73080;48.768;11.528;2024-03-22T12:15:51;97239.31;;;17.37;48.47
83185;BME280;73080;48.768;11.528;2024-03-22T12:18:17;97232.88;;;17.48;47.26
83185;BME280;73080;48.768;11.528;2024-03-22T12:20:42;97242.47;;;17.68;45.52
83185;BME280;73080;48.768;11.528;2024-03-22T12:23:07;97225.22;;;16.73;46.36
83185;BME280;73080;48.768;11.528;2024-03-22T12:25:33;97229.44;;;16.30;47.40
83185;BME280;73080;48.768;11.528;2024-03-22T12:27:58;97223.41;;;16.64;47.74
83185;BME280;73080;48.768;11.528;2024-03-22T12:30:24;97217.31;;;16.63;47.92
83185;BME280;73080;48.768;11.528;2024-03-22T12:32:49;97217.28;;;16.73;47.99
83185;BME280;73080;48.768;11.528;2024-03-22T12:35:15;97214.81;;;16.82;47.78
83185;BME280;73080;48.768;11.528;2024-03-22T12:37:40;97206.25;;;17.24;47.45
83185;BME280;73080;48.768;11.528;2024-03-22T12:40:06;97209.75;;;17.78;45.31
83185;BME280;73080;48.768;11.528;2024-03-22T12:42:35;97202.44;;;17.36;46.67
83185;BME280;73080;48.768;11.528;2024-03-22T12:45:01;97187.44;;;17.79;45.89
83185;BME280;73080;48.768;11.528;2024-03-22T12:47:26;97189.19;;;17.36;45.02
83185;BME280;73080;48.768;11.528;2024-03-22T12:49:51;97183.72;;;16.93;46.51
83185;BME280;73080;48.768;11.528;2024-03-22T12:52:17;97171.38;;;16.34;47.36